sensor_id;sensor_type;location;lat;lon;timestamp;temperature;humidity
20045;DHT22;10183;47.808;9.476;2023-06-10T00:00:46;15.40;99.90
20045;DHT22;10183;47.808;9.476;2023-06-10T00:03:13;15.30;99.90
20045;DHT22;10183;47.808;9.476;2023-06-10T00:05:39;15.30;99.90
20045;DHT22;10183;47.808;9.476;2023-06-10T00:08:06;15.40;99.90
20045;DHT22;10183;47.808;9.476;2023-06-10T00:10:38;15.30;99.90
20045;DHT22;10183;47.808;9.476;2023-06-10T00:13:05;15.20;99.90
20045;DHT22;10183;47.808;9.476;2023-06-10T00:15:34;15.20;99.90
20045;DHT22;10183;47.808;9.476;2023-06-10T00:18:01;15.20;99.90
20045;DHT22;10183;47.808;9.476;2023-06-10T00:20:28;15.20;99.90
20045;DHT22;10183;47.808;9.476;2023-06-10T00:22:54;15.20;99.90
20045;DHT22;10183;47.808;9.476;2023-06-10T00:25:20;15.20;99.90
20045;DHT22;10183;47.808;9.476;2023-06-10T00:27:46;15.10;99.90
20045;DHT22;10183;47.808;9.476;2023-06-10T00:30:13;15.10;99.90
20045;DHT22;10183;47.808;9.476;2023-06-10T00:32:39;15.00;99.90
20045;DHT22;10183;47.808;9.476;2023-06-10T00:35:06;15.00;99.90
20045;DHT22;10183;47.808;9.476;2023-06-10T00:37:33;15.00;99.90
20045;DHT22;10183;47.808;9.476;2023-06-10T00:40:02;15.00;99.90
20045;DHT22;10183;47.808;9.476;2023-06-10T00:42:29;15.00;99.90
20045;DHT22;10183;47.808;9.476;2023-06-10T00:44:55;15.00;99.90
20045;DHT22;10183;47.808;9.476;2023-06-10T00:47:22;15.00;99.90
20045;DHT22;10183;47.808;9.476;2023-06-10T00:49:49;15.00;99.90
20045;DHT22;10183;47.808;9.476;2023-06-10T00:52:17;15.00;99.90
20045;DHT22;10183;47.808;9.476;2023-06-10T00:54:46;14.90;99.90
20045;DHT22;10183;47.808;9.476;2023-06-10T00:57:12;14.90;99.90
20045;DHT22;10183;47.808;9.476;2023-06-10T00:59:40;14.90;99.90
20045;DHT22;10183;47.808;9.476;2023-06-10T01:02:07;14.80;99.90
20045;DHT22;10183;47.808;9.476;2023-06-10T01:04:35;14.70;99.90
20045;DHT22;10183;47.808;9.476;2023-06-10T01:10:01;14.70;99.90
20045;DHT22;10183;47.808;9.476;2023-06-10T01:13:00;14.70;99.90
20045;DHT22;10183;47.808;9.476;2023-06-10T01:15:25;14.70;99.90
20045;DHT22;10183;47.808;9.476;2023-06-10T01:17:59;14.70;99.90
20045;DHT22;10183;47.808;9.476;2023-06-10T01:20:28;14.70;99.90
20045;DHT22;10183;47.808;9.476;2023-06-10T01:22:56;14.70;99.90
20045;DHT22;10183;47.808;9.476;2023-06-10T01:25:24;14.70;99.90
20045;DHT22;10183;47.808;9.476;2023-06-10T01:28:40;14.80;99.90
20045;DHT22;10183;47.808;9.476;2023-06-10T01:33:52;14.70;99.90
20045;DHT22;10183;47.808;9.476;2023-06-10T01:36:19;14.70;99.90
20045;DHT22;10183;47.808;9.476;2023-06-10T01:38:48;14.80;99.90
20045;DHT22;10183;47.808;9.476;2023-06-10T01:41:17;14.80;99.90
20045;DHT22;10183;47.808;9.476;2023-06-10T01:43:45;14.80;99.90
20045;DHT22;10183;47.808;9.476;2023-06-10T01:46:11;14.80;99.90
20045;DHT22;10183;47.808;9.476;2023-06-10T01:48:38;14.80;99.90
20045;DHT22;10183;47.808;9.476;2023-06-10T01:51:05;14.70;99.90
20045;DHT22;10183;47.808;9.476;2023-06-10T01:53:31;14.70;99.90
20045;DHT22;10183;47.808;9.476;2023-06-10T01:55:57;14.60;99.90
20045;DHT22;10183;47.808;9.476;2023-06-10T01:58:23;14.60;99.90
20045;DHT22;10183;47.808;9.476;2023-06-10T02:00:49;14.60;99.90
20045;DHT22;10183;47.808;9.476;2023-06-10T02:03:15;14.50;99.90
20045;DHT22;10183;47.808;9.476;2023-06-10T02:05:42;14.50;99.90
20045;DHT22;10183;47.808;9.476;2023-06-10T02:08:08;14.60;99.90
20045;DHT22;10183;47.808;9.476;2023-06-10T02:10:34;14.50;99.90
20045;DHT22;10183;47.808;9.476;2023-06-10T02:13:00;14.50;99.90
20045;DHT22;10183;47.808;9.476;2023-06-10T02:15:26;14.50;99.90
20045;DHT22;10183;47.808;9.476;2023-06-10T02:17:53;14.40;99.90
20045;DHT22;10183;47.808;9.476;2023-06-10T02:20:20;14.30;99.90
20045;DHT22;10183;47.808;9.476;2023-06-10T02:22:46;14.30;99.90
20045;DHT22;10183;47.808;9.476;2023-06-10T02:25:13;14.20;99.90
20045;DHT22;10183;47.808;9.476;2023-06-10T02:27:39;14.20;99.90
20045;DHT22;10183;47.808;9.476;2023-06-10T02:30:05;14.20;99.90
20045;DHT22;10183;47.808;9.476;2023-06-10T02:32:32;14.10;99.90
20045;DHT22;10183;47.808;9.476;2023-06-10T02:34:58;14.10;99.90
20045;DHT22;10183;47.808;9.476;2023-06-10T02:37:26;14.10;99.90
20045;DHT22;10183;47.808;9.476;2023-06-10T02:39:52;14.10;99.90
20045;DHT22;10183;47.808;9.476;2023-06-10T02:42:18;14.00;99.90
20045;DHT22;10183;47.808;9.476;2023-06-10T02:44:45;14.00;99.90
20045;DHT22;10183;47.808;9.476;2023-06-10T02:47:11;14.00;99.90
20045;DHT22;10183;47.808;9.476;2023-06-10T02:49:37;13.90;99.90
20045;DHT22;10183;47.808;9.476;2023-06-10T02:52:03;13.80;99.90
20045;DHT22;10183;47.808;9.476;2023-06-10T02:54:30;13.80;99.90
20045;DHT22;10183;47.808;9.476;2023-06-10T02:56:56;13.80;99.90
20045;DHT22;10183;47.808;9.476;2023-06-10T02:59:22;13.70;99.90
20045;DHT22;10183;47.808;9.476;2023-06-10T03:01:48;13.70;99.90
20045;DHT22;10183;47.808;9.476;2023-06-10T03:04:14;13.70;99.90
20045;DHT22;10183;47.808;9.476;2023-06-10T03:06:40;13.70;99.90
20045;DHT22;10183;47.808;9.476;2023-06-10T03:09:07;13.70;99.90
20045;DHT22;10183;47.808;9.476;2023-06-10T03:11:33;13.80;99.90
20045;DHT22;10183;47.808;9.476;2023-06-10T03:13:59;13.70;99.90
20045;DHT22;10183;47.808;9.476;2023-06-10T03:16:26;13.70;99.90
20045;DHT22;10183;47.808;9.476;2023-06-10T03:18:53;13.70;99.90
20045;DHT22;10183;47.808;9.476;2023-06-10T03:21:20;13.70;99.90
20045;DHT22;10183;47.808;9.476;2023-06-10T03:23:46;13.60;99.90
20045;DHT22;10183;47.808;9.476;2023-06-10T03:26:12;13.60;99.90
20045;DHT22;10183;47.808;9.476;2023-06-10T03:28:41;13.60;99.90
20045;DHT22;10183;47.808;9.476;2023-06-10T03:31:07;13.60;99.90
20045;DHT22;10183;47.808;9.476;2023-06-10T03:33:34;13.60;99.90
20045;DHT22;10183;47.808;9.476;2023-06-10T03:36:00;13.60;99.90
20045;DHT22;10183;47.808;9.476;2023-06-10T03:38:26;13.60;99.90
20045;DHT22;10183;47.808;9.476;2023-06-10T03:40:52;13.60;99.90
20045;DHT22;10183;47.808;9.476;2023-06-10T03:43:18;13.50;99.90
20045;DHT22;10183;47.808;9.476;2023-06-10T03:45:44;13.50;99.90
20045;DHT22;10183;47.808;9.476;2023-06-10T03:48:11;13.40;99.90
20045;DHT22;10183;47.808;9.476;2023-06-10T03:50:37;13.40;99.90
20045;DHT22;10183;47.808;9.476;2023-06-10T03:53:03;13.40;99.90
20045;DHT22;10183;47.808;9.476;2023-06-10T03:55:29;13.40;99.90
20045;DHT22;10183;47.808;9.476;2023-06-10T03:57:57;13.40;99.90
20045;DHT22;10183;47.808;9.476;2023-06-10T04:00:24;13.40;99.90
20045;DHT22;10183;47.808;9.476;2023-06-10T04:02:50;13.50;99.90
20045;DHT22;10183;47.808;9.476;2023-06-10T04:05:19;13.50;99.90
20045;DHT22;10183;47.808;9.476;2023-06-10T04:07:48;13.60;99.90
20045;DHT22;10183;47.808;9.476;2023-06-10T04:10:15;13.60;99.90
20045;DHT22;10183;47.808;9.476;2023-06-10T04:12:41;13.60;99.90
20045;DHT22;10183;47.808;9.476;2023-06-10T04:15:08;13.70;99.90
20045;DHT22;10183;47.808;9.476;2023-06-10T04:17:35;13.70;99.90
20045;DHT22;10183;47.808;9.476;2023-06-10T04:20:01;13.70;99.90
20045;DHT22;10183;47.808;9.476;2023-06-10T04:22:27;13.80;99.90
20045;DHT22;10183;47.808;9.476;2023-06-10T04:24:53;13.80;99.90
20045;DHT22;10183;47.808;9.476;2023-06-10T04:27:19;13.80;99.90
20045;DHT22;10183;47.808;9.476;2023-06-10T04:29:45;13.90;99.90
20045;DHT22;10183;47.808;9.476;2023-06-10T04:32:12;14.00;99.90
20045;DHT22;10183;47.808;9.476;2023-06-10T04:34:38;14.00;99.90
20045;DHT22;10183;47.808;9.476;2023-06-10T04:37:06;14.10;99.90
20045;DHT22;10183;47.808;9.476;2023-06-10T04:39:33;14.20;99.90
20045;DHT22;10183;47.808;9.476;2023-06-10T04:41:59;14.20;99.90
20045;DHT22;10183;47.808;9.476;2023-06-10T04:44:26;14.30;99.90
20045;DHT22;10183;47.808;9.476;2023-06-10T04:46:52;14.20;99.90
20045;DHT22;10183;47.808;9.476;2023-06-10T04:49:18;14.30;99.90
20045;DHT22;10183;47.808;9.476;2023-06-10T04:51:44;14.40;99.90
20045;DHT22;10183;47.808;9.476;2023-06-10T04:54:11;14.50;99.90
20045;DHT22;10183;47.808;9.476;2023-06-10T04:56:37;14.60;99.90
20045;DHT22;10183;47.808;9.476;2023-06-10T04:59:03;14.60;99.90
20045;DHT22;10183;47.808;9.476;2023-06-10T05:01:29;14.70;99.90
20045;DHT22;10183;47.808;9.476;2023-06-10T05:03:55;14.70;99.90
20045;DHT22;10183;47.808;9.476;2023-06-10T05:06:22;14.70;99.90
20045;DHT22;10183;47.808;9.476;2023-06-10T05:08:48;14.80;99.90
20045;DHT22;10183;47.808;9.476;2023-06-10T05:11:14;14.80;99.90
20045;DHT22;10183;47.808;9.476;2023-06-10T05:13:42;14.80;99.90
20045;DHT22;10183;47.808;9.476;2023-06-10T05:16:08;14.90;99.90
20045;DHT22;10183;47.808;9.476;2023-06-10T05:18:35;14.90;99.90
20045;DHT22;10183;47.808;9.476;2023-06-10T05:21:01;15.00;99.90
20045;DHT22;10183;47.808;9.476;2023-06-10T05:23:28;15.10;99.90
20045;DHT22;10183;47.808;9.476;2023-06-10T05:25:54;15.30;99.90
20045;DHT22;10183;47.808;9.476;2023-06-10T05:28:20;15.40;99.90
20045;DHT22;10183;47.808;9.476;2023-06-10T05:30:47;15.50;99.90
20045;DHT22;10183;47.808;9.476;2023-06-10T05:33:13;15.60;99.90
20045;DHT22;10183;47.808;9.476;2023-06-10T05:35:39;15.70;99.90
20045;DHT22;10183;47.808;9.476;2023-06-10T05:38:07;15.90;99.90
20045;DHT22;10183;47.808;9.476;2023-06-10T05:40:33;15.90;99.90
20045;DHT22;10183;47.808;9.476;2023-06-10T05:42:59;16.10;99.90
20045;DHT22;10183;47.808;9.476;2023-06-10T05:45:25;16.20;99.90
20045;DHT22;10183;47.808;9.476;2023-06-10T05:47:51;16.30;99.90
20045;DHT22;10183;47.808;9.476;2023-06-10T05:50:17;16.30;99.90
20045;DHT22;10183;47.808;9.476;2023-06-10T05:52:43;16.40;99.90
20045;DHT22;10183;47.808;9.476;2023-06-10T05:55:10;16.50;99.90
20045;DHT22;10183;47.808;9.476;2023-06-10T05:57:36;16.60;99.90
20045;DHT22;10183;47.808;9.476;2023-06-10T06:00:03;16.60;99.90
20045;DHT22;10183;47.808;9.476;2023-06-10T06:02:30;16.60;99.90
20045;DHT22;10183;47.808;9.476;2023-06-10T06:04:56;16.80;99.90
20045;DHT22;10183;47.808;9.476;2023-06-10T06:07:22;16.80;99.90
20045;DHT22;10183;47.808;9.476;2023-06-10T06:09:48;16.90;99.90
20045;DHT22;10183;47.808;9.476;2023-06-10T06:12:15;17.00;99.90
20045;DHT22;10183;47.808;9.476;2023-06-10T06:14:41;17.00;99.90
20045;DHT22;10183;47.808;9.476;2023-06-10T06:17:07;17.10;99.90
20045;DHT22;10183;47.808;9.476;2023-06-10T06:19:33;17.10;99.90
20045;DHT22;10183;47.808;9.476;2023-06-10T06:22:00;17.10;99.90
20045;DHT22;10183;47.808;9.476;2023-06-10T06:24:26;17.10;99.90
20045;DHT22;10183;47.808;9.476;2023-06-10T06:26:52;17.20;99.90
20045;DHT22;10183;47.808;9.476;2023-06-10T06:29:18;17.30;99.90
20045;DHT22;10183;47.808;9.476;2023-06-10T06:31:44;17.30;99.90
20045;DHT22;10183;47.808;9.476;2023-06-10T06:34:11;17.50;99.90
20045;DHT22;10183;47.808;9.476;2023-06-10T06:36:37;17.60;99.90
20045;DHT22;10183;47.808;9.476;2023-06-10T06:39:03;17.60;99.90
20045;DHT22;10183;47.808;9.476;2023-06-10T06:41:29;17.80;99.90
20045;DHT22;10183;47.808;9.476;2023-06-10T06:43:55;17.90;99.90
20045;DHT22;10183;47.808;9.476;2023-06-10T06:46:21;17.90;99.90
20045;DHT22;10183;47.808;9.476;2023-06-10T06:48:48;18.10;99.90
20045;DHT22;10183;47.808;9.476;2023-06-10T06:51:14;18.20;99.90
20045;DHT22;10183;47.808;9.476;2023-06-10T06:53:40;18.10;99.90
20045;DHT22;10183;47.808;9.476;2023-06-10T06:56:13;18.30;99.90
20045;DHT22;10183;47.808;9.476;2023-06-10T06:58:39;18.50;99.90
20045;DHT22;10183;47.808;9.476;2023-06-10T07:01:05;18.50;99.90
20045;DHT22;10183;47.808;9.476;2023-06-10T07:03:32;18.70;99.90
20045;DHT22;10183;47.808;9.476;2023-06-10T07:05:58;18.80;99.90
20045;DHT22;10183;47.808;9.476;2023-06-10T07:08:24;19.00;99.90
20045;DHT22;10183;47.808;9.476;2023-06-10T07:10:50;19.10;99.90
20045;DHT22;10183;47.808;9.476;2023-06-10T07:13:16;19.10;99.90
20045;DHT22;10183;47.808;9.476;2023-06-10T07:15:43;19.20;99.90
20045;DHT22;10183;47.808;9.476;2023-06-10T07:18:09;19.40;99.90
20045;DHT22;10183;47.808;9.476;2023-06-10T07:20:35;19.40;99.90
20045;DHT22;10183;47.808;9.476;2023-06-10T07:23:01;19.60;99.90
20045;DHT22;10183;47.808;9.476;2023-06-10T07:25:27;19.60;99.90
20045;DHT22;10183;47.808;9.476;2023-06-10T07:27:53;19.70;99.90
20045;DHT22;10183;47.808;9.476;2023-06-10T07:30:20;19.70;99.90
20045;DHT22;10183;47.808;9.476;2023-06-10T07:32:46;19.80;99.90
20045;DHT22;10183;47.808;9.476;2023-06-10T07:35:14;20.00;99.90
20045;DHT22;10183;47.808;9.476;2023-06-10T07:37:40;20.10;99.90
20045;DHT22;10183;47.808;9.476;2023-06-10T07:40:06;20.20;99.90
20045;DHT22;10183;47.808;9.476;2023-06-10T07:42:34;20.20;99.90
20045;DHT22;10183;47.808;9.476;2023-06-10T07:45:01;20.30;99.90
20045;DHT22;10183;47.808;9.476;2023-06-10T07:47:27;20.40;99.90
20045;DHT22;10183;47.808;9.476;2023-06-10T07:49:53;20.40;99.90
20045;DHT22;10183;47.808;9.476;2023-06-10T07:52:19;20.60;99.90
20045;DHT22;10183;47.808;9.476;2023-06-10T07:54:46;20.60;99.90
20045;DHT22;10183;47.808;9.476;2023-06-10T07:57:12;20.40;99.90
20045;DHT22;10183;47.808;9.476;2023-06-10T07:59:38;20.70;99.90
20045;DHT22;10183;47.808;9.476;2023-06-10T08:02:05;20.80;99.90
20045;DHT22;10183;47.808;9.476;2023-06-10T08:04:32;20.80;99.90
20045;DHT22;10183;47.808;9.476;2023-06-10T08:07:01;20.90;99.90
20045;DHT22;10183;47.808;9.476;2023-06-10T08:09:27;20.90;99.90
20045;DHT22;10183;47.808;9.476;2023-06-10T08:11:53;21.00;99.90
20045;DHT22;10183;47.808;9.476;2023-06-10T08:14:19;21.10;99.90
20045;DHT22;10183;47.808;9.476;2023-06-10T08:16:45;21.20;99.90
20045;DHT22;10183;47.808;9.476;2023-06-10T08:19:11;21.20;99.90
20045;DHT22;10183;47.808;9.476;2023-06-10T08:21:38;21.30;99.90
20045;DHT22;10183;47.808;9.476;2023-06-10T08:24:09;21.30;99.90
20045;DHT22;10183;47.808;9.476;2023-06-10T08:26:35;21.50;99.90
20045;DHT22;10183;47.808;9.476;2023-06-10T08:29:03;21.60;99.90
20045;DHT22;10183;47.808;9.476;2023-06-10T08:31:29;21.90;99.90
20045;DHT22;10183;47.808;9.476;2023-06-10T08:33:55;22.00;99.90
20045;DHT22;10183;47.808;9.476;2023-06-10T08:36:21;22.10;99.90
20045;DHT22;10183;47.808;9.476;2023-06-10T08:38:48;22.10;99.90
20045;DHT22;10183;47.808;9.476;2023-06-10T08:41:14;22.20;99.90
20045;DHT22;10183;47.808;9.476;2023-06-10T08:43:48;22.40;99.90
20045;DHT22;10183;47.808;9.476;2023-06-10T08:46:14;22.40;99.90
20045;DHT22;10183;47.808;9.476;2023-06-10T08:48:44;22.40;99.90
20045;DHT22;10183;47.808;9.476;2023-06-10T08:51:14;22.50;99.90
20045;DHT22;10183;47.808;9.476;2023-06-10T08:53:50;22.50;99.90
20045;DHT22;10183;47.808;9.476;2023-06-10T08:56:19;22.70;99.90
20045;DHT22;10183;47.808;9.476;2023-06-10T08:58:48;22.80;99.90
20045;DHT22;10183;47.808;9.476;2023-06-10T09:01:14;22.70;99.90
20045;DHT22;10183;47.808;9.476;2023-06-10T09:03:42;22.90;99.90
20045;DHT22;10183;47.808;9.476;2023-06-10T09:06:09;23.00;99.90
20045;DHT22;10183;47.808;9.476;2023-06-10T09:08:35;23.00;99.90
20045;DHT22;10183;47.808;9.476;2023-06-10T09:11:02;23.00;99.90
20045;DHT22;10183;47.808;9.476;2023-06-10T09:13:29;23.30;99.90
20045;DHT22;10183;47.808;9.476;2023-06-10T09:15:55;23.40;99.90
20045;DHT22;10183;47.808;9.476;2023-06-10T09:18:26;23.40;99.90
20045;DHT22;10183;47.808;9.476;2023-06-10T09:20:53;23.60;99.90
20045;DHT22;10183;47.808;9.476;2023-06-10T09:23:19;23.90;99.90
20045;DHT22;10183;47.808;9.476;2023-06-10T09:25:45;24.00;99.90
20045;DHT22;10183;47.808;9.476;2023-06-10T09:28:15;24.00;99.90
20045;DHT22;10183;47.808;9.476;2023-06-10T09:30:41;24.30;99.90
20045;DHT22;10183;47.808;9.476;2023-06-10T09:33:13;24.50;99.90
20045;DHT22;10183;47.808;9.476;2023-06-10T09:35:48;24.30;99.90
20045;DHT22;10183;47.808;9.476;2023-06-10T09:38:29;24.10;99.90
20045;DHT22;10183;47.808;9.476;2023-06-10T09:40:56;24.40;99.90
20045;DHT22;10183;47.808;9.476;2023-06-10T09:43:22;24.20;99.90
20045;DHT22;10183;47.808;9.476;2023-06-10T09:45:51;24.40;99.90
20045;DHT22;10183;47.808;9.476;2023-06-10T09:48:22;24.80;99.90
20045;DHT22;10183;47.808;9.476;2023-06-10T09:50:49;25.00;99.90
20045;DHT22;10183;47.808;9.476;2023-06-10T09:53:17;25.10;99.90
20045;DHT22;10183;47.808;9.476;2023-06-10T09:55:44;25.50;99.90
20045;DHT22;10183;47.808;9.476;2023-06-10T09:58:10;25.60;99.90
20045;DHT22;10183;47.808;9.476;2023-06-10T10:00:36;25.50;99.90
20045;DHT22;10183;47.808;9.476;2023-06-10T10:03:02;25.60;99.90
20045;DHT22;10183;47.808;9.476;2023-06-10T10:05:29;25.60;99.90
20045;DHT22;10183;47.808;9.476;2023-06-10T10:07:56;25.50;99.90
20045;DHT22;10183;47.808;9.476;2023-06-10T10:10:25;25.60;99.90
20045;DHT22;10183;47.808;9.476;2023-06-10T10:12:56;25.70;99.90
20045;DHT22;10183;47.808;9.476;2023-06-10T10:15:25;25.80;97.90
20045;DHT22;10183;47.808;9.476;2023-06-10T10:18:09;26.10;98.80
20045;DHT22;10183;47.808;9.476;2023-06-10T10:20:43;25.90;99.40
20045;DHT22;10183;47.808;9.476;2023-06-10T10:23:14;25.80;99.90
20045;DHT22;10183;47.808;9.476;2023-06-10T10:25:42;25.90;99.90
20045;DHT22;10183;47.808;9.476;2023-06-10T10:28:11;25.80;99.90
20045;DHT22;10183;47.808;9.476;2023-06-10T10:30:42;25.20;98.70
20045;DHT22;10183;47.808;9.476;2023-06-10T10:33:18;25.40;99.90
20045;DHT22;10183;47.808;9.476;2023-06-10T10:35:46;25.40;99.90
20045;DHT22;10183;47.808;9.476;2023-06-10T10:38:12;25.00;96.20
20045;DHT22;10183;47.808;9.476;2023-06-10T10:40:39;25.10;97.10
20045;DHT22;10183;47.808;9.476;2023-06-10T10:43:05;25.80;97.30
20045;DHT22;10183;47.808;9.476;2023-06-10T10:45:35;26.20;93.40
20045;DHT22;10183;47.808;9.476;2023-06-10T10:48:07;26.30;98.80
20045;DHT22;10183;47.808;9.476;2023-06-10T10:50:35;26.20;95.50
20045;DHT22;10183;47.808;9.476;2023-06-10T10:53:04;26.30;90.70
20045;DHT22;10183;47.808;9.476;2023-06-10T10:55:31;26.30;90.20
20045;DHT22;10183;47.808;9.476;2023-06-10T10:58:07;26.00;91.70
20045;DHT22;10183;47.808;9.476;2023-06-10T11:00:34;26.40;92.20
20045;DHT22;10183;47.808;9.476;2023-06-10T11:03:05;26.10;88.10
20045;DHT22;10183;47.808;9.476;2023-06-10T11:05:42;25.80;85.90
20045;DHT22;10183;47.808;9.476;2023-06-10T11:08:11;26.40;96.30
20045;DHT22;10183;47.808;9.476;2023-06-10T11:10:39;27.20;96.60
20045;DHT22;10183;47.808;9.476;2023-06-10T11:13:13;27.70;84.70
20045;DHT22;10183;47.808;9.476;2023-06-10T11:15:50;27.50;75.70
20045;DHT22;10183;47.808;9.476;2023-06-10T11:18:29;27.60;76.10
20045;DHT22;10183;47.808;9.476;2023-06-10T11:20:59;27.10;76.20
20045;DHT22;10183;47.808;9.476;2023-06-10T11:26:21;27.00;78.00
20045;DHT22;10183;47.808;9.476;2023-06-10T11:31:25;28.70;63.00
20045;DHT22;10183;47.808;9.476;2023-06-10T11:33:56;28.50;63.00
20045;DHT22;10183;47.808;9.476;2023-06-10T11:36:23;27.90;59.40
20045;DHT22;10183;47.808;9.476;2023-06-10T11:38:55;28.10;50.40
20045;DHT22;10183;47.808;9.476;2023-06-10T11:41:23;28.30;44.20
20045;DHT22;10183;47.808;9.476;2023-06-10T11:43:49;28.20;50.80
20045;DHT22;10183;47.808;9.476;2023-06-10T11:46:15;27.40;49.20
20045;DHT22;10183;47.808;9.476;2023-06-10T11:48:59;27.50;50.40
20045;DHT22;10183;47.808;9.476;2023-06-10T11:51:27;28.50;42.60
20045;DHT22;10183;47.808;9.476;2023-06-10T11:53:53;28.80;41.40
20045;DHT22;10183;47.808;9.476;2023-06-10T11:56:24;28.20;43.60
20045;DHT22;10183;47.808;9.476;2023-06-10T12:01:22;26.50;46.00
20045;DHT22;10183;47.808;9.476;2023-06-10T12:03:57;26.00;58.40
20045;DHT22;10183;47.808;9.476;2023-06-10T12:06:23;25.70;62.00
20045;DHT22;10183;47.808;9.476;2023-06-10T12:08:50;25.60;74.80
20045;DHT22;10183;47.808;9.476;2023-06-10T12:11:16;25.40;65.20
20045;DHT22;10183;47.808;9.476;2023-06-10T12:13:49;25.70;63.90
20045;DHT22;10183;47.808;9.476;2023-06-10T12:16:16;26.90;60.30
20045;DHT22;10183;47.808;9.476;2023-06-10T12:18:46;27.90;47.90
20045;DHT22;10183;47.808;9.476;2023-06-10T12:21:32;29.00;47.90
20045;DHT22;10183;47.808;9.476;2023-06-10T12:24:05;29.70;43.00
20045;DHT22;10183;47.808;9.476;2023-06-10T12:26:44;30.10;42.00
20045;DHT22;10183;47.808;9.476;2023-06-10T12:29:20;30.60;28.60
20045;DHT22;10183;47.808;9.476;2023-06-10T12:31:58;30.60;32.60
20045;DHT22;10183;47.808;9.476;2023-06-10T12:34:36;30.70;32.80
20045;DHT22;10183;47.808;9.476;2023-06-10T12:37:10;30.60;30.30
20045;DHT22;10183;47.808;9.476;2023-06-10T12:39:40;30.00;30.80
20045;DHT22;10183;47.808;9.476;2023-06-10T12:42:08;29.70;36.00
20045;DHT22;10183;47.808;9.476;2023-06-10T12:44:39;29.80;36.20
20045;DHT22;10183;47.808;9.476;2023-06-10T12:47:09;30.00;43.20
20045;DHT22;10183;47.808;9.476;2023-06-10T12:49:36;30.20;33.30
20045;DHT22;10183;47.808;9.476;2023-06-10T12:52:04;30.70;36.40
20045;DHT22;10183;47.808;9.476;2023-06-10T12:54:31;31.20;29.20
20045;DHT22;10183;47.808;9.476;2023-06-10T12:56:57;30.90;25.10
20045;DHT22;10183;47.808;9.476;2023-06-10T12:59:24;31.00;24.70
20045;DHT22;10183;47.808;9.476;2023-06-10T13:01:51;30.90;29.00
20045;DHT22;10183;47.808;9.476;2023-06-10T13:04:18;30.90;27.30
20045;DHT22;10183;47.808;9.476;2023-06-10T13:06:44;30.50;25.60
20045;DHT22;10183;47.808;9.476;2023-06-10T13:09:10;29.30;25.80
20045;DHT22;10183;47.808;9.476;2023-06-10T13:11:37;28.40;27.30
20045;DHT22;10183;47.808;9.476;2023-06-10T13:14:04;27.90;28.90
20045;DHT22;10183;47.808;9.476;2023-06-10T13:16:31;28.10;33.20
20045;DHT22;10183;47.808;9.476;2023-06-10T13:18:58;29.00;31.70
20045;DHT22;10183;47.808;9.476;2023-06-10T13:21:25;30.20;31.10
20045;DHT22;10183;47.808;9.476;2023-06-10T13:23:51;31.40;25.20
20045;DHT22;10183;47.808;9.476;2023-06-10T13:26:17;32.30;26.70
20045;DHT22;10183;47.808;9.476;2023-06-10T13:28:44;31.60;21.90
20045;DHT22;10183;47.808;9.476;2023-06-10T13:31:10;31.40;21.90
20045;DHT22;10183;47.808;9.476;2023-06-10T13:33:37;31.90;20.20
20045;DHT22;10183;47.808;9.476;2023-06-10T13:36:04;32.70;22.80
20045;DHT22;10183;47.808;9.476;2023-06-10T13:38:31;32.00;19.10
20045;DHT22;10183;47.808;9.476;2023-06-10T13:40:57;32.00;21.70
20045;DHT22;10183;47.808;9.476;2023-06-10T13:43:23;32.40;20.00
20045;DHT22;10183;47.808;9.476;2023-06-10T13:45:53;33.00;18.30
20045;DHT22;10183;47.808;9.476;2023-06-10T13:48:20;32.60;15.90
20045;DHT22;10183;47.808;9.476;2023-06-10T13:50:46;33.00;13.90
20045;DHT22;10183;47.808;9.476;2023-06-10T13:53:12;33.40;13.70
20045;DHT22;10183;47.808;9.476;2023-06-10T13:55:38;33.90;12.90
20045;DHT22;10183;47.808;9.476;2023-06-10T13:58:05;34.00;12.80
20045;DHT22;10183;47.808;9.476;2023-06-10T14:00:31;34.60;11.10
20045;DHT22;10183;47.808;9.476;2023-06-10T14:02:57;36.10;10.70
20045;DHT22;10183;47.808;9.476;2023-06-10T14:05:23;35.70;6.80
20045;DHT22;10183;47.808;9.476;2023-06-10T14:07:50;35.60;7.20
20045;DHT22;10183;47.808;9.476;2023-06-10T14:10:16;35.00;8.10
20045;DHT22;10183;47.808;9.476;2023-06-10T14:12:42;32.50;8.40
20045;DHT22;10183;47.808;9.476;2023-06-10T14:15:08;30.80;12.30
20045;DHT22;10183;47.808;9.476;2023-06-10T14:17:35;29.90;12.50
20045;DHT22;10183;47.808;9.476;2023-06-10T14:20:01;31.90;14.20
20045;DHT22;10183;47.808;9.476;2023-06-10T14:22:27;33.40;11.30
20045;DHT22;10183;47.808;9.476;2023-06-10T14:24:53;35.20;11.50
20045;DHT22;10183;47.808;9.476;2023-06-10T14:27:20;36.50;6.60
20045;DHT22;10183;47.808;9.476;2023-06-10T14:29:46;37.10;4.90
20045;DHT22;10183;47.808;9.476;2023-06-10T14:32:13;36.70;1.90
20045;DHT22;10183;47.808;9.476;2023-06-10T14:34:39;35.60;4.40
20045;DHT22;10183;47.808;9.476;2023-06-10T14:37:07;33.50;6.60
20045;DHT22;10183;47.808;9.476;2023-06-10T14:39:33;33.80;6.80
20045;DHT22;10183;47.808;9.476;2023-06-10T14:41:59;32.90;5.60
20045;DHT22;10183;47.808;9.476;2023-06-10T14:44:25;31.10;8.30
20045;DHT22;10183;47.808;9.476;2023-06-10T14:46:52;29.60;13.30
20045;DHT22;10183;47.808;9.476;2023-06-10T14:49:18;29.40;16.20
20045;DHT22;10183;47.808;9.476;2023-06-10T14:51:44;30.70;14.90
20045;DHT22;10183;47.808;9.476;2023-06-10T14:54:10;32.80;14.50
20045;DHT22;10183;47.808;9.476;2023-06-10T14:56:37;34.60;11.70
20045;DHT22;10183;47.808;9.476;2023-06-10T14:59:03;35.10;6.80
20045;DHT22;10183;47.808;9.476;2023-06-10T15:01:29;36.40;6.00
20045;DHT22;10183;47.808;9.476;2023-06-10T15:03:56;37.50;3.90
20045;DHT22;10183;47.808;9.476;2023-06-10T15:06:22;37.70;2.00
20045;DHT22;10183;47.808;9.476;2023-06-10T15:08:48;37.10;4.50
20045;DHT22;10183;47.808;9.476;2023-06-10T15:11:15;38.30;1.70
20045;DHT22;10183;47.808;9.476;2023-06-10T15:13:41;37.80;1.00
20045;DHT22;10183;47.808;9.476;2023-06-10T15:16:07;37.30;1.00
20045;DHT22;10183;47.808;9.476;2023-06-10T15:18:33;38.50;1.90
20045;DHT22;10183;47.808;9.476;2023-06-10T15:20:59;37.60;1.00
20045;DHT22;10183;47.808;9.476;2023-06-10T15:23:26;38.20;1.00
20045;DHT22;10183;47.808;9.476;2023-06-10T15:25:52;36.60;1.00
20045;DHT22;10183;47.808;9.476;2023-06-10T15:28:18;35.80;1.00
20045;DHT22;10183;47.808;9.476;2023-06-10T15:30:44;34.90;1.00
20045;DHT22;10183;47.808;9.476;2023-06-10T15:33:10;35.20;1.00
20045;DHT22;10183;47.808;9.476;2023-06-10T15:35:36;35.10;1.70
20045;DHT22;10183;47.808;9.476;2023-06-10T15:38:03;34.60;1.80
20045;DHT22;10183;47.808;9.476;2023-06-10T15:40:29;33.00;4.50
20045;DHT22;10183;47.808;9.476;2023-06-10T15:42:55;33.20;4.50
20045;DHT22;10183;47.808;9.476;2023-06-10T15:45:21;34.20;3.40
20045;DHT22;10183;47.808;9.476;2023-06-10T15:47:47;35.80;2.00